sensor_id;sensor_type;location;lat;lon;timestamp;temperature;humidity
74661;SHT31;63191;39.566;2.654;2022-12-19T00:01:06;13.48;82.20
74661;SHT31;63191;39.566;2.654;2022-12-19T00:03:46;13.45;82.30
74661;SHT31;63191;39.566;2.654;2022-12-19T00:06:21;13.44;82.30
74661;SHT31;63191;39.566;2.654;2022-12-19T00:08:48;13.43;82.25
74661;SHT31;63191;39.566;2.654;2022-12-19T00:11:16;13.42;82.21
74661;SHT31;63191;39.566;2.654;2022-12-19T00:13:45;13.40;82.23
74661;SHT31;63191;39.566;2.654;2022-12-19T00:16:12;13.37;82.28
74661;SHT31;63191;39.566;2.654;2022-12-19T00:18:44;13.35;82.30
74661;SHT31;63191;39.566;2.654;2022-12-19T00:21:12;13.33;82.38
74661;SHT31;63191;39.566;2.654;2022-12-19T00:23:40;13.29;82.41
74661;SHT31;63191;39.566;2.654;2022-12-19T00:28:42;13.30;82.50
74661;SHT31;63191;39.566;2.654;2022-12-19T00:31:11;13.32;82.50
74661;SHT31;63191;39.566;2.654;2022-12-19T00:33:38;13.32;82.53
74661;SHT31;63191;39.566;2.654;2022-12-19T00:36:05;13.35;82.60
74661;SHT31;63191;39.566;2.654;2022-12-19T00:38:35;13.38;82.69
74661;SHT31;63191;39.566;2.654;2022-12-19T00:41:35;13.40;82.70
74661;SHT31;63191;39.566;2.654;2022-12-19T00:44:01;13.44;82.70
74661;SHT31;63191;39.566;2.654;2022-12-19T00:46:34;13.48;82.59
74661;SHT31;63191;39.566;2.654;2022-12-19T00:49:01;13.52;82.47
74661;SHT31;63191;39.566;2.654;2022-12-19T00:51:30;13.55;82.37
74661;SHT31;63191;39.566;2.654;2022-12-19T00:53:59;13.57;82.30
74661;SHT31;63191;39.566;2.654;2022-12-19T00:56:27;13.58;82.26
74661;SHT31;63191;39.566;2.654;2022-12-19T00:58:59;13.56;82.17
74661;SHT31;63191;39.566;2.654;2022-12-19T01:01:26;13.55;82.09
74661;SHT31;63191;39.566;2.654;2022-12-19T01:03:57;13.52;82.09
74661;SHT31;63191;39.566;2.654;2022-12-19T01:06:24;13.52;82.10
74661;SHT31;63191;39.566;2.654;2022-12-19T01:08:51;13.53;82.10
74661;SHT31;63191;39.566;2.654;2022-12-19T01:11:18;13.56;82.07
74661;SHT31;63191;39.566;2.654;2022-12-19T01:14:04;13.56;82.01
74661;SHT31;63191;39.566;2.654;2022-12-19T01:16:30;13.57;82.02
74661;SHT31;63191;39.566;2.654;2022-12-19T01:18:56;13.57;82.01
74661;SHT31;63191;39.566;2.654;2022-12-19T01:21:23;13.57;82.02
74661;SHT31;63191;39.566;2.654;2022-12-19T01:23:51;13.57;82.05
74661;SHT31;63191;39.566;2.654;2022-12-19T01:26:17;13.59;82.07
74661;SHT31;63191;39.566;2.654;2022-12-19T01:28:43;13.62;82.03
74661;SHT31;63191;39.566;2.654;2022-12-19T01:31:09;13.66;82.00
74661;SHT31;63191;39.566;2.654;2022-12-19T01:33:34;13.70;81.95
74661;SHT31;63191;39.566;2.654;2022-12-19T01:36:00;13.73;81.90
74661;SHT31;63191;39.566;2.654;2022-12-19T01:38:33;13.75;81.90
74661;SHT31;63191;39.566;2.654;2022-12-19T01:41:00;13.76;81.88
74661;SHT31;63191;39.566;2.654;2022-12-19T01:43:31;13.77;81.81
74661;SHT31;63191;39.566;2.654;2022-12-19T01:46:17;13.77;81.67
74661;SHT31;63191;39.566;2.654;2022-12-19T01:48:50;13.78;81.56
74661;SHT31;63191;39.566;2.654;2022-12-19T01:51:18;13.77;81.50
74661;SHT31;63191;39.566;2.654;2022-12-19T01:53:53;13.77;81.50
74661;SHT31;63191;39.566;2.654;2022-12-19T01:56:25;13.77;81.50
74661;SHT31;63191;39.566;2.654;2022-12-19T01:58:55;13.75;81.45
74661;SHT31;63191;39.566;2.654;2022-12-19T02:01:25;13.72;81.48
74661;SHT31;63191;39.566;2.654;2022-12-19T02:03:51;13.70;81.50
74661;SHT31;63191;39.566;2.654;2022-12-19T02:06:19;13.67;81.50
74661;SHT31;63191;39.566;2.654;2022-12-19T02:08:47;13.65;81.48
74661;SHT31;63191;39.566;2.654;2022-12-19T02:11:13;13.63;81.50
74661;SHT31;63191;39.566;2.654;2022-12-19T02:13:39;13.61;81.51
74661;SHT31;63191;39.566;2.654;2022-12-19T02:16:19;13.58;81.58
74661;SHT31;63191;39.566;2.654;2022-12-19T02:18:57;13.55;81.65
74661;SHT31;63191;39.566;2.654;2022-12-19T02:24:55;13.46;81.80
74661;SHT31;63191;39.566;2.654;2022-12-19T02:33:54;13.43;81.90
74661;SHT31;63191;39.566;2.654;2022-12-19T02:36:43;13.46;81.96
74661;SHT31;63191;39.566;2.654;2022-12-19T02:41:56;13.53;82.03
74661;SHT31;63191;39.566;2.654;2022-12-19T02:44:32;13.55;82.10
74661;SHT31;63191;39.566;2.654;2022-12-19T02:47:03;13.58;82.20
74661;SHT31;63191;39.566;2.654;2022-12-19T02:49:32;13.61;82.20
74661;SHT31;63191;39.566;2.654;2022-12-19T02:52:41;13.64;82.20
74661;SHT31;63191;39.566;2.654;2022-12-19T02:55:09;13.69;82.11
74661;SHT31;63191;39.566;2.654;2022-12-19T02:57:45;13.71;82.05
74661;SHT31;63191;39.566;2.654;2022-12-19T03:00:55;13.73;82.01
74661;SHT31;63191;39.566;2.654;2022-12-19T03:04:07;13.70;82.10
74661;SHT31;63191;39.566;2.654;2022-12-19T03:12:44;13.70;82.38
74661;SHT31;63191;39.566;2.654;2022-12-19T03:15:18;13.75;82.45
74661;SHT31;63191;39.566;2.654;2022-12-19T03:17:45;13.83;82.47
74661;SHT31;63191;39.566;2.654;2022-12-19T03:20:21;13.88;82.40
74661;SHT31;63191;39.566;2.654;2022-12-19T03:23:00;13.92;82.34
74661;SHT31;63191;39.566;2.654;2022-12-19T03:25:26;13.94;82.30
74661;SHT31;63191;39.566;2.654;2022-12-19T03:27:56;13.95;82.21
74661;SHT31;63191;39.566;2.654;2022-12-19T03:30:30;13.95;82.20
74661;SHT31;63191;39.566;2.654;2022-12-19T03:32:57;13.94;82.20
74661;SHT31;63191;39.566;2.654;2022-12-19T03:35:26;13.96;82.20
74661;SHT31;63191;39.566;2.654;2022-12-19T03:37:54;14.00;82.20
74661;SHT31;63191;39.566;2.654;2022-12-19T03:40:24;14.04;82.20
74661;SHT31;63191;39.566;2.654;2022-12-19T03:42:55;14.09;82.28
74661;SHT31;63191;39.566;2.654;2022-12-19T03:45:44;14.12;82.28
74661;SHT31;63191;39.566;2.654;2022-12-19T03:48:47;14.14;82.24
74661;SHT31;63191;39.566;2.654;2022-12-19T03:51:37;14.15;82.22
74661;SHT31;63191;39.566;2.654;2022-12-19T04:02:20;14.18;82.05
74661;SHT31;63191;39.566;2.654;2022-12-19T04:04:49;14.18;82.04
74661;SHT31;63191;39.566;2.654;2022-12-19T04:07:19;14.18;82.06
74661;SHT31;63191;39.566;2.654;2022-12-19T04:09:47;14.19;82.09
74661;SHT31;63191;39.566;2.654;2022-12-19T04:12:20;14.18;82.08
74661;SHT31;63191;39.566;2.654;2022-12-19T04:14:54;14.16;82.10
74661;SHT31;63191;39.566;2.654;2022-12-19T04:20:03;14.18;82.02
74661;SHT31;63191;39.566;2.654;2022-12-19T04:22:34;14.19;81.93
74661;SHT31;63191;39.566;2.654;2022-12-19T04:25:06;14.19;81.88
74661;SHT31;63191;39.566;2.654;2022-12-19T04:27:40;14.16;81.85
74661;SHT31;63191;39.566;2.654;2022-12-19T04:30:17;14.12;81.82
74661;SHT31;63191;39.566;2.654;2022-12-19T04:32:45;14.08;81.80
74661;SHT31;63191;39.566;2.654;2022-12-19T04:35:14;14.04;81.82
74661;SHT31;63191;39.566;2.654;2022-12-19T04:37:40;13.99;81.80
74661;SHT31;63191;39.566;2.654;2022-12-19T04:40:06;13.96;81.80
74661;SHT31;63191;39.566;2.654;2022-12-19T04:42:34;13.94;81.80
74661;SHT31;63191;39.566;2.654;2022-12-19T04:45:02;13.91;81.84
74661;SHT31;63191;39.566;2.654;2022-12-19T04:47:29;13.89;81.93
74661;SHT31;63191;39.566;2.654;2022-12-19T04:49:55;13.85;82.04
74661;SHT31;63191;39.566;2.654;2022-12-19T04:52:21;13.81;82.19
74661;SHT31;63191;39.566;2.654;2022-12-19T04:54:47;13.78;82.33
74661;SHT31;63191;39.566;2.654;2022-12-19T04:57:13;13.73;82.50
74661;SHT31;63191;39.566;2.654;2022-12-19T04:59:38;13.73;82.66
74661;SHT31;63191;39.566;2.654;2022-12-19T05:02:04;13.73;82.81
74661;SHT31;63191;39.566;2.654;2022-12-19T05:04:31;13.74;82.90
74661;SHT31;63191;39.566;2.654;2022-12-19T05:06:57;13.74;82.90
74661;SHT31;63191;39.566;2.654;2022-12-19T05:09:22;13.71;82.90
74661;SHT31;63191;39.566;2.654;2022-12-19T05:11:48;13.69;82.90
74661;SHT31;63191;39.566;2.654;2022-12-19T05:14:14;13.67;82.90
74661;SHT31;63191;39.566;2.654;2022-12-19T05:16:41;13.65;82.90
74661;SHT31;63191;39.566;2.654;2022-12-19T05:19:07;13.67;82.90
74661;SHT31;63191;39.566;2.654;2022-12-19T05:21:32;13.68;82.88
74661;SHT31;63191;39.566;2.654;2022-12-19T05:23:58;13.69;82.80
74661;SHT31;63191;39.566;2.654;2022-12-19T05:26:24;13.70;82.74
74661;SHT31;63191;39.566;2.654;2022-12-19T05:28:50;13.70;82.77
74661;SHT31;63191;39.566;2.654;2022-12-19T05:31:17;13.71;82.81
74661;SHT31;63191;39.566;2.654;2022-12-19T05:33:44;13.72;82.91
74661;SHT31;63191;39.566;2.654;2022-12-19T05:36:11;13.73;83.00
74661;SHT31;63191;39.566;2.654;2022-12-19T05:38:39;13.73;82.96
74661;SHT31;63191;39.566;2.654;2022-12-19T05:41:15;13.74;82.90
74661;SHT31;63191;39.566;2.654;2022-12-19T05:43:49;13.74;82.87
74661;SHT31;63191;39.566;2.654;2022-12-19T05:46:18;13.72;82.81
74661;SHT31;63191;39.566;2.654;2022-12-19T05:48:44;13.68;82.82
74661;SHT31;63191;39.566;2.654;2022-12-19T05:51:11;13.65;82.86
74661;SHT31;63191;39.566;2.654;2022-12-19T05:53:38;13.61;82.98
74661;SHT31;63191;39.566;2.654;2022-12-19T05:56:05;13.60;83.16
74661;SHT31;63191;39.566;2.654;2022-12-19T05:58:35;13.61;83.32
74661;SHT31;63191;39.566;2.654;2022-12-19T06:01:09;13.63;83.38
74661;SHT31;63191;39.566;2.654;2022-12-19T06:03:49;13.64;83.44
74661;SHT31;63191;39.566;2.654;2022-12-19T06:06:22;13.62;83.50
74661;SHT31;63191;39.566;2.654;2022-12-19T06:08:53;13.61;83.50
74661;SHT31;63191;39.566;2.654;2022-12-19T06:11:21;13.59;83.50
74661;SHT31;63191;39.566;2.654;2022-12-19T06:13:48;13.57;83.50
74661;SHT31;63191;39.566;2.654;2022-12-19T06:16:14;13.57;83.50
74661;SHT31;63191;39.566;2.654;2022-12-19T06:18:43;13.59;83.51
74661;SHT31;63191;39.566;2.654;2022-12-19T06:21:11;13.62;83.60
74661;SHT31;63191;39.566;2.654;2022-12-19T06:23:45;13.66;83.64
74661;SHT31;63191;39.566;2.654;2022-12-19T06:26:13;13.67;83.69
74661;SHT31;63191;39.566;2.654;2022-12-19T06:28:42;13.67;83.74
74661;SHT31;63191;39.566;2.654;2022-12-19T06:31:10;13.65;83.80
74661;SHT31;63191;39.566;2.654;2022-12-19T06:33:37;13.64;83.82
74661;SHT31;63191;39.566;2.654;2022-12-19T06:36:05;13.63;83.86
74661;SHT31;63191;39.566;2.654;2022-12-19T06:38:35;13.64;83.82
74661;SHT31;63191;39.566;2.654;2022-12-19T06:41:02;13.65;83.80
74661;SHT31;63191;39.566;2.654;2022-12-19T06:43:47;13.65;83.81
74661;SHT31;63191;39.566;2.654;2022-12-19T06:46:14;13.65;83.88
74661;SHT31;63191;39.566;2.654;2022-12-19T06:48:40;13.63;83.94
74661;SHT31;63191;39.566;2.654;2022-12-19T06:51:06;13.62;84.00
74661;SHT31;63191;39.566;2.654;2022-12-19T06:53:32;13.63;84.09
74661;SHT31;63191;39.566;2.654;2022-12-19T06:55:58;13.64;84.10
74661;SHT31;63191;39.566;2.654;2022-12-19T06:58:24;13.67;84.10
74661;SHT31;63191;39.566;2.654;2022-12-19T07:00:51;13.70;84.10
74661;SHT31;63191;39.566;2.654;2022-12-19T07:03:23;13.73;84.10
74661;SHT31;63191;39.566;2.654;2022-12-19T07:06:05;13.72;84.09
74661;SHT31;63191;39.566;2.654;2022-12-19T07:08:32;13.72;84.01
74661;SHT31;63191;39.566;2.654;2022-12-19T07:10:59;13.71;84.00
74661;SHT31;63191;39.566;2.654;2022-12-19T07:13:25;13.72;84.07
74661;SHT31;63191;39.566;2.654;2022-12-19T07:15:51;13.74;84.02
74661;SHT31;63191;39.566;2.654;2022-12-19T07:18:21;13.79;84.00
74661;SHT31;63191;39.566;2.654;2022-12-19T07:20:47;13.86;84.01
74661;SHT31;63191;39.566;2.654;2022-12-19T07:23:13;13.93;84.00
74661;SHT31;63191;39.566;2.654;2022-12-19T07:25:44;14.00;83.99
74661;SHT31;63191;39.566;2.654;2022-12-19T07:28:10;14.07;83.93
74661;SHT31;63191;39.566;2.654;2022-12-19T07:30:37;14.15;83.89
74661;SHT31;63191;39.566;2.654;2022-12-19T07:33:02;14.25;83.80
74661;SHT31;63191;39.566;2.654;2022-12-19T07:35:28;14.39;83.70
74661;SHT31;63191;39.566;2.654;2022-12-19T07:37:57;14.52;83.57
74661;SHT31;63191;39.566;2.654;2022-12-19T07:40:29;14.66;83.38
74661;SHT31;63191;39.566;2.654;2022-12-19T07:42:57;14.85;83.17
74661;SHT31;63191;39.566;2.654;2022-12-19T07:45:25;15.16;82.93
74661;SHT31;63191;39.566;2.654;2022-12-19T07:47:51;15.65;82.49
74661;SHT31;63191;39.566;2.654;2022-12-19T07:50:19;16.31;82.12
74661;SHT31;63191;39.566;2.654;2022-12-19T07:52:44;16.99;81.81
74661;SHT31;63191;39.566;2.654;2022-12-19T07:55:10;17.70;81.06
74661;SHT31;63191;39.566;2.654;2022-12-19T07:57:36;18.36;79.83
74661;SHT31;63191;39.566;2.654;2022-12-19T08:00:02;18.90;78.33
74661;SHT31;63191;39.566;2.654;2022-12-19T08:02:29;19.24;76.80
74661;SHT31;63191;39.566;2.654;2022-12-19T08:04:55;19.48;75.42
74661;SHT31;63191;39.566;2.654;2022-12-19T08:07:21;19.64;74.26
74661;SHT31;63191;39.566;2.654;2022-12-19T08:09:47;19.77;73.23
74661;SHT31;63191;39.566;2.654;2022-12-19T08:12:13;19.86;72.25
74661;SHT31;63191;39.566;2.654;2022-12-19T08:14:39;20.03;71.49
74661;SHT31;63191;39.566;2.654;2022-12-19T08:17:04;20.27;70.86
74661;SHT31;63191;39.566;2.654;2022-12-19T08:19:30;20.46;70.04
74661;SHT31;63191;39.566;2.654;2022-12-19T08:21:56;20.66;69.33
74661;SHT31;63191;39.566;2.654;2022-12-19T08:24:22;20.92;68.81
74661;SHT31;63191;39.566;2.654;2022-12-19T08:26:47;21.24;68.08
74661;SHT31;63191;39.566;2.654;2022-12-19T08:29:13;21.54;67.32
74661;SHT31;63191;39.566;2.654;2022-12-19T08:31:39;21.84;66.40
74661;SHT31;63191;39.566;2.654;2022-12-19T08:34:05;22.11;65.43
74661;SHT31;63191;39.566;2.654;2022-12-19T08:36:31;22.41;64.57
74661;SHT31;63191;39.566;2.654;2022-12-19T08:38:56;22.74;63.62
74661;SHT31;63191;39.566;2.654;2022-12-19T08:41:22;23.05;62.55
74661;SHT31;63191;39.566;2.654;2022-12-19T08:43:49;23.39;61.56
74661;SHT31;63191;39.566;2.654;2022-12-19T08:46:17;23.67;60.72
74661;SHT31;63191;39.566;2.654;2022-12-19T08:48:44;24.01;60.07
74661;SHT31;63191;39.566;2.654;2022-12-19T08:51:11;24.44;59.15
74661;SHT31;63191;39.566;2.654;2022-12-19T08:53:39;24.81;57.68
74661;SHT31;63191;39.566;2.654;2022-12-19T08:56:09;25.07;56.82
74661;SHT31;63191;39.566;2.654;2022-12-19T08:58:41;25.31;56.16
74661;SHT31;63191;39.566;2.654;2022-12-19T09:01:09;25.54;55.35
74661;SHT31;63191;39.566;2.654;2022-12-19T09:03:40;25.80;54.53
74661;SHT31;63191;39.566;2.654;2022-12-19T09:06:07;26.06;53.78
74661;SHT31;63191;39.566;2.654;2022-12-19T09:08:35;26.27;53.11
74661;SHT31;63191;39.566;2.654;2022-12-19T09:11:03;26.46;52.54
74661;SHT31;63191;39.566;2.654;2022-12-19T09:13:33;26.75;51.76
74661;SHT31;63191;39.566;2.654;2022-12-19T09:16:12;27.05;50.82
74661;SHT31;63191;39.566;2.654;2022-12-19T09:18:40;27.28;50.25
74661;SHT31;63191;39.566;2.654;2022-12-19T09:21:08;27.66;49.66
74661;SHT31;63191;39.566;2.654;2022-12-19T09:23:35;28.18;48.93
74661;SHT31;63191;39.566;2.654;2022-12-19T09:26:02;28.88;48.28
74661;SHT31;63191;39.566;2.654;2022-12-19T09:28:29;29.55;47.21
74661;SHT31;63191;39.566;2.654;2022-12-19T09:30:56;30.08;46.20
74661;SHT31;63191;39.566;2.654;2022-12-19T09:33:27;30.34;45.07
74661;SHT31;63191;39.566;2.654;2022-12-19T09:35:55;30.82;44.33
74661;SHT31;63191;39.566;2.654;2022-12-19T09:38:22;31.66;43.42
74661;SHT31;63191;39.566;2.654;2022-12-19T09:41:36;32.49;42.06
74661;SHT31;63191;39.566;2.654;2022-12-19T09:46:23;34.70;39.03
74661;SHT31;63191;39.566;2.654;2022-12-19T09:49:22;35.85;37.66
74661;SHT31;63191;39.566;2.654;2022-12-19T09:52:09;36.72;36.58
74661;SHT31;63191;39.566;2.654;2022-12-19T09:57:26;38.47;34.27
74661;SHT31;63191;39.566;2.654;2022-12-19T10:00:11;39.32;32.54
74661;SHT31;63191;39.566;2.654;2022-12-19T10:02:48;39.73;30.90
74661;SHT31;63191;39.566;2.654;2022-12-19T10:05:25;39.79;29.77
74661;SHT31;63191;39.566;2.654;2022-12-19T10:07:58;39.73;29.76
74661;SHT31;63191;39.566;2.654;2022-12-19T10:10:26;39.56;29.11
74661;SHT31;63191;39.566;2.654;2022-12-19T10:13:15;39.69;29.47
74661;SHT31;63191;39.566;2.654;2022-12-19T10:18:59;40.24;28.65
74661;SHT31;63191;39.566;2.654;2022-12-19T10:35:58;36.99;29.42
74661;SHT31;63191;39.566;2.654;2022-12-19T10:38:49;37.22;29.82
74661;SHT31;63191;39.566;2.654;2022-12-19T10:41:24;36.53;30.24
74661;SHT31;63191;39.566;2.654;2022-12-19T10:46:37;35.68;31.10
74661;SHT31;63191;39.566;2.654;2022-12-19T10:49:46;35.42;31.34
74661;SHT31;63191;39.566;2.654;2022-12-19T10:52:07;34.46;32.27
74661;SHT31;63191;39.566;2.654;2022-12-19T10:57:46;34.19;32.78
74661;SHT31;63191;39.566;2.654;2022-12-19T11:00:00;34.75;32.35
74661;SHT31;63191;39.566;2.654;2022-12-19T11:08:10;37.25;30.89
74661;SHT31;63191;39.566;2.654;2022-12-19T11:10:52;37.10;29.87
74661;SHT31;63191;39.566;2.654;2022-12-19T11:13:24;36.16;29.66
74661;SHT31;63191;39.566;2.654;2022-12-19T11:15:54;35.62;30.30
74661;SHT31;63191;39.566;2.654;2022-12-19T11:18:23;35.54;30.94
74661;SHT31;63191;39.566;2.654;2022-12-19T11:23:47;37.15;30.33
74661;SHT31;63191;39.566;2.654;2022-12-19T11:26:42;37.95;29.73
74661;SHT31;63191;39.566;2.654;2022-12-19T11:35:26;38.55;27.58
74661;SHT31;63191;39.566;2.654;2022-12-19T11:37:55;37.93;27.79
74661;SHT31;63191;39.566;2.654;2022-12-19T11:40:38;36.74;28.56
74661;SHT31;63191;39.566;2.654;2022-12-19T11:43:12;36.45;29.31
74661;SHT31;63191;39.566;2.654;2022-12-19T11:57:19;36.57;28.88
74661;SHT31;63191;39.566;2.654;2022-12-19T11:59:45;36.31;29.40
74661;SHT31;63191;39.566;2.654;2022-12-19T12:05:00;36.79;29.16
74661;SHT31;63191;39.566;2.654;2022-12-19T12:07:52;36.68;28.89
74661;SHT31;63191;39.566;2.654;2022-12-19T12:10:33;36.93;29.05
74661;SHT31;63191;39.566;2.654;2022-12-19T12:16:13;37.16;28.76
74661;SHT31;63191;39.566;2.654;2022-12-19T12:18:51;37.42;28.67
74661;SHT31;63191;39.566;2.654;2022-12-19T12:39:29;37.78;27.72
74661;SHT31;63191;39.566;2.654;2022-12-19T12:42:14;37.49;28.02
74661;SHT31;63191;39.566;2.654;2022-12-19T12:45:35;37.42;28.63
74661;SHT31;63191;39.566;2.654;2022-12-19T12:48:11;37.78;28.26
74661;SHT31;63191;39.566;2.654;2022-12-19T12:50:52;37.67;27.83
74661;SHT31;63191;39.566;2.654;2022-12-19T12:53:20;36.78;28.08
74661;SHT31;63191;39.566;2.654;2022-12-19T12:55:52;35.59;29.12
74661;SHT31;63191;39.566;2.654;2022-12-19T13:01:33;35.39;30.06
74661;SHT31;63191;39.566;2.654;2022-12-19T13:04:04;35.33;30.37
74661;SHT31;63191;39.566;2.654;2022-12-19T13:06:41;35.35;30.76
74661;SHT31;63191;39.566;2.654;2022-12-19T13:09:29;35.34;30.58
74661;SHT31;63191;39.566;2.654;2022-12-19T13:14:44;34.56;30.95
74661;SHT31;63191;39.566;2.654;2022-12-19T13:20:13;33.44;32.20
74661;SHT31;63191;39.566;2.654;2022-12-19T13:22:43;32.96;32.78
74661;SHT31;63191;39.566;2.654;2022-12-19T13:42:14;30.10;37.56
74661;SHT31;63191;39.566;2.654;2022-12-19T13:45:06;29.56;38.14
74661;SHT31;63191;39.566;2.654;2022-12-19T13:47:39;29.06;39.11
74661;SHT31;63191;39.566;2.654;2022-12-19T13:53:16;27.56;42.15
74661;SHT31;63191;39.566;2.654;2022-12-19T13:55:44;26.95;43.22
74661;SHT31;63191;39.566;2.654;2022-12-19T13:58:20;26.52;44.17
74661;SHT31;63191;39.566;2.654;2022-12-19T14:00:51;26.20;45.16
74661;SHT31;63191;39.566;2.654;2022-12-19T14:03:32;25.85;46.02
74661;SHT31;63191;39.566;2.654;2022-12-19T14:06:25;25.51;47.21
74661;SHT31;63191;39.566;2.654;2022-12-19T14:09:02;25.25;47.41
74661;SHT31;63191;39.566;2.654;2022-12-19T14:11:39;25.06;47.56
74661;SHT31;63191;39.566;2.654;2022-12-19T14:14:09;24.94;48.09
74661;SHT31;63191;39.566;2.654;2022-12-19T14:19:39;24.44;49.63
74661;SHT31;63191;39.566;2.654;2022-12-19T14:22:11;24.32;50.17
74661;SHT31;63191;39.566;2.654;2022-12-19T14:24:38;24.14;50.35
74661;SHT31;63191;39.566;2.654;2022-12-19T14:27:06;23.90;51.26
74661;SHT31;63191;39.566;2.654;2022-12-19T14:29:41;23.65;52.21
74661;SHT31;63191;39.566;2.654;2022-12-19T14:32:12;23.40;52.88
74661;SHT31;63191;39.566;2.654;2022-12-19T14:34:40;23.26;53.17
74661;SHT31;63191;39.566;2.654;2022-12-19T14:37:22;23.14;53.49
74661;SHT31;63191;39.566;2.654;2022-12-19T14:40:06;22.97;54.03
74661;SHT31;63191;39.566;2.654;2022-12-19T14:42:48;22.63;54.34
74661;SHT31;63191;39.566;2.654;2022-12-19T14:45:38;22.27;55.24
74661;SHT31;63191;39.566;2.654;2022-12-19T14:51:04;21.74;56.68
74661;SHT31;63191;39.566;2.654;2022-12-19T14:56:43;21.25;58.05
74661;SHT31;63191;39.566;2.654;2022-12-19T15:02:17;20.99;58.86
74661;SHT31;63191;39.566;2.654;2022-12-19T15:05:07;20.84;59.25
74661;SHT31;63191;39.566;2.654;2022-12-19T15:07:42;20.73;59.56
74661;SHT31;63191;39.566;2.654;2022-12-19T15:10:15;20.61;60.07
74661;SHT31;63191;39.566;2.654;2022-12-19T15:12:56;20.54;60.67
74661;SHT31;63191;39.566;2.654;2022-12-19T15:18:32;20.33;61.20
74661;SHT31;63191;39.566;2.654;2022-12-19T15:21:06;20.23;61.39
74661;SHT31;63191;39.566;2.654;2022-12-19T15:23:37;20.16;61.81
74661;SHT31;63191;39.566;2.654;2022-12-19T15:26:04;20.08;62.31
74661;SHT31;63191;39.566;2.654;2022-12-19T15:28:39;20.01;62.75
74661;SHT31;63191;39.566;2.654;2022-12-19T15:34:24;19.79;63.61
74661;SHT31;63191;39.566;2.654;2022-12-19T15:36:54;19.70;64.24
74661;SHT31;63191;39.566;2.654;2022-12-19T15:39:22;19.58;64.68
74661;SHT31;63191;39.566;2.654;2022-12-19T15:41:50;19.46;65.08
74661;SHT31;63191;39.566;2.654;2022-12-19T15:47:06;19.25;65.26
74661;SHT31;63191;39.566;2.654;2022-12-19T15:49:46;19.17;65.56
74661;SHT31;63191;39.566;2.654;2022-12-19T15:52:15;19.10;65.85
74661;SHT31;63191;39.566;2.654;2022-12-19T15:54:44;19.00;66.07
74661;SHT31;63191;39.566;2.654;2022-12-19T15:57:16;18.94;66.25
74661;SHT31;63191;39.566;2.654;2022-12-19T16:00:03;18.87;66.55
74661;SHT31;63191;39.566;2.654;2022-12-19T16:02:38;18.77;66.97
74661;SHT31;63191;39.566;2.654;2022-12-19T16:05:04;18.65;67.35
74661;SHT31;63191;39.566;2.654;2022-12-19T16:07:30;18.53;67.54
74661;SHT31;63191;39.566;2.654;2022-12-19T16:09:56;18.41;67.73
74661;SHT31;63191;39.566;2.654;2022-12-19T16:12:23;18.34;68.01
74661;SHT31;63191;39.566;2.654;2022-12-19T16:15:00;18.25;68.45
74661;SHT31;63191;39.566;2.654;2022-12-19T16:17:28;18.13;68.75
74661;SHT31;63191;39.566;2.654;2022-12-19T16:19:56;18.03;68.94
74661;SHT31;63191;39.566;2.654;2022-12-19T16:22:27;17.92;69.30
74661;SHT31;63191;39.566;2.654;2022-12-19T16:24:54;17.84;69.67
74661;SHT31;63191;39.566;2.654;2022-12-19T16:27:24;17.78;69.90
74661;SHT31;63191;39.566;2.654;2022-12-19T16:29:53;17.72;70.14
74661;SHT31;63191;39.566;2.654;2022-12-19T16:32:20;17.67;70.52
74661;SHT31;63191;39.566;2.654;2022-12-19T16:34:48;17.60;70.96
74661;SHT31;63191;39.566;2.654;2022-12-19T16:37:15;17.55;71.16
74661;SHT31;63191;39.566;2.654;2022-12-19T16:39:43;17.50;71.27
74661;SHT31;63191;39.566;2.654;2022-12-19T16:42:12;17.48;71.41
74661;SHT31;63191;39.566;2.654;2022-12-19T16:44:40;17.47;71.53
74661;SHT31;63191;39.566;2.654;2022-12-19T16:47:10;17.45;71.64
74661;SHT31;63191;39.566;2.654;2022-12-19T16:49:40;17.43;71.80
74661;SHT31;63191;39.566;2.654;2022-12-19T16:52:06;17.42;71.87
74661;SHT31;63191;39.566;2.654;2022-12-19T16:54:32;17.39;72.03
74661;SHT31;63191;39.566;2.654;2022-12-19T16:56:58;17.38;72.10
74661;SHT31;63191;39.566;2.654;2022-12-19T16:59:36;17.34;72.10
74661;SHT31;63191;39.566;2.654;2022-12-19T17:05:01;17.22;72.21
74661;SHT31;63191;39.566;2.654;2022-12-19T17:07:28;17.15;72.48
74661;SHT31;63191;39.566;2.654;2022-12-19T17:09:56;17.12;72.75
74661;SHT31;63191;39.566;2.654;2022-12-19T17:12:22;17.08;73.08
74661;SHT31;63191;39.566;2.654;2022-12-19T17:14:51;17.04;73.21
74661;SHT31;63191;39.566;2.654;2022-12-19T17:17:18;17.00;73.21
74661;SHT31;63191;39.566;2.654;2022-12-19T17:19:44;16.97;73.30
74661;SHT31;63191;39.566;2.654;2022-12-19T17:22:10;16.93;73.38
74661;SHT31;63191;39.566;2.654;2022-12-19T17:24:45;16.89;73.48
74661;SHT31;63191;39.566;2.654;2022-12-19T17:27:12;16.86;73.72
74661;SHT31;63191;39.566;2.654;2022-12-19T17:29:38;16.83;73.77
74661;SHT31;63191;39.566;2.654;2022-12-19T17:32:05;16.80;73.96
74661;SHT31;63191;39.566;2.654;2022-12-19T17:34:33;16.76;74.25
74661;SHT31;63191;39.566;2.654;2022-12-19T17:37:00;16.72;74.37
74661;SHT31;63191;39.566;2.654;2022-12-19T17:39:29;16.68;74.45
74661;SHT31;63191;39.566;2.654;2022-12-19T17:41:59;16.63;74.65
74661;SHT31;63191;39.566;2.654;2022-12-19T17:44:35;16.60;74.86
74661;SHT31;63191;39.566;2.654;2022-12-19T17:47:01;16.58;75.05
74661;SHT31;63191;39.566;2.654;2022-12-19T17:49:29;16.57;75.10
74661;SHT31;63191;39.566;2.654;2022-12-19T17:51:56;16.55;75.07
74661;SHT31;63191;39.566;2.654;2022-12-19T17:54:24;16.52;75.03
74661;SHT31;63191;39.566;2.654;2022-12-19T17:56:51;16.47;75.10
74661;SHT31;63191;39.566;2.654;2022-12-19T17:59:17;16.41;75.17
74661;SHT31;63191;39.566;2.654;2022-12-19T18:01:44;16.37;75.33
74661;SHT31;63191;39.566;2.654;2022-12-19T18:04:13;16.35;75.52
74661;SHT31;63191;39.566;2.654;2022-12-19T18:06:44;16.34;75.61
74661;SHT31;63191;39.566;2.654;2022-12-19T18:09:20;16.35;75.74
74661;SHT31;63191;39.566;2.654;2022-12-19T18:11:49;16.36;75.80
74661;SHT31;63191;39.566;2.654;2022-12-19T18:14:17;16.38;75.88
74661;SHT31;63191;39.566;2.654;2022-12-19T18:16:43;16.37;75.93
74661;SHT31;63191;39.566;2.654;2022-12-19T18:19:17;16.38;76.08
74661;SHT31;63191;39.566;2.654;2022-12-19T18:21:48;16.36;76.14
74661;SHT31;63191;39.566;2.654;2022-12-19T18:24:14;16.36;76.12
74661;SHT31;63191;39.566;2.654;2022-12-19T18:26:41;16.35;76.17
74661;SHT31;63191;39.566;2.654;2022-12-19T18:29:09;16.33;76.20
74661;SHT31;63191;39.566;2.654;2022-12-19T18:31:35;16.30;76.20
74661;SHT31;63191;39.566;2.654;2022-12-19T18:34:01;16.26;76.32
74661;SHT31;63191;39.566;2.654;2022-12-19T18:36:29;16.22;76.48
74661;SHT31;63191;39.566;2.654;2022-12-19T18:39:16;16.18;76.60